Time;durP1;ratioP1;P1;durP2;ratioP2;P2;SDS_P1;SDS_P2;PMS_P1;PMS_P2;Temp;Humidity;BMP_temperature;BMP_pressure;BME280_temperature;BME280_humidity;BME280_pressure;Samples;Min_cycle;Max_cycle;Signal;HPM_P1;HPM_P2
2022/07/18 00:01:42;;;;;;;6.93;4.68;;;;;;;;;;5006059;28;20085;-65
2022/07/18 00:04:08;;;;;;;8.05;4.72;;;;;;;;;;5005857;28;20038;-65
2022/07/18 00:06:35;;;;;;;7.13;4.80;;;;;;;;;;5005590;28;20034;-65
2022/07/18 00:09:01;;;;;;;7.72;4.88;;;;;;;;;;4988827;28;20080;-65
2022/07/18 00:11:27;;;;;;;7.78;5.05;;;;;;;;;;4988961;28;20038;-65
2022/07/18 00:13:53;;;;;;;9.77;5.38;;;;;;;;;;4990110;28;20034;-65
2022/07/18 00:16:19;;;;;;;10.85;5.53;;;;;;;;;;4987699;28;20042;-65
2022/07/18 00:18:45;;;;;;;9.55;6.10;;;;;;;;;;4996984;28;20302;-65
2022/07/18 00:21:11;;;;;;;8.10;4.88;;;;;;;;;;4996759;28;20043;-64
2022/07/18 00:23:37;;;;;;;6.82;4.50;;;;;;;;;;4992698;28;20061;-63
2022/07/18 00:26:04;;;;;;;7.15;4.70;;;;;;;;;;4992812;28;20042;-64
2022/07/18 00:28:30;;;;;;;6.10;4.65;;;;;;;;;;4998793;28;20045;-64
2022/07/18 00:30:56;;;;;;;6.68;4.53;;;;;;;;;;4993311;28;20037;-64
2022/07/18 00:33:22;;;;;;;7.32;4.90;;;;;;;;;;4990498;28;20046;-64
2022/07/18 00:35:48;;;;;;;6.70;4.80;;;;;;;;;;4989735;28;20038;-64
2022/07/18 00:38:15;;;;;;;7.93;4.95;;;;;;;;;;5007047;28;20030;-64
2022/07/18 00:40:41;;;;;;;10.13;5.30;;;;;;;;;;4994212;28;20038;-64
2022/07/18 00:43:07;;;;;;;7.35;5.00;;;;;;;;;;4992010;28;20041;-64
2022/07/18 00:45:33;;;;;;;8.43;5.38;;;;;;;;;;4998755;28;20042;-64
2022/07/18 00:48:05;;;;;;;8.35;5.18;;;;;;;;;;4990472;28;20136;-64
2022/07/18 00:50:31;;;;;;;10.70;6.10;;;;;;;;;;4994794;28;20042;-64
2022/07/18 00:52:57;;;;;;;9.18;5.20;;;;;;;;;;5003973;28;20045;-65
2022/07/18 00:55:23;;;;;;;8.25;6.30;;;;;;;;;;4992570;28;20045;-65
2022/07/18 00:57:49;;;;;;;11.68;7.13;;;;;;;;;;4998304;28;20038;-64
2022/07/18 01:03:00;;;;;;;11.57;7.82;;;;;;;;;;4989242;28;20121;-64
2022/07/18 01:05:26;;;;;;;7.28;5.07;;;;;;;;;;4997784;28;20069;-64
2022/07/18 01:07:52;;;;;;;9.48;5.15;;;;;;;;;;4999135;28;20054;-64
2022/07/18 01:10:18;;;;;;;12.13;6.40;;;;;;;;;;5000008;28;20141;-64
2022/07/18 01:12:45;;;;;;;8.55;5.05;;;;;;;;;;5002079;28;20507;-64
2022/07/18 01:15:11;;;;;;;8.55;5.88;;;;;;;;;;4992601;28;20165;-64
2022/07/18 01:17:37;;;;;;;8.63;5.43;;;;;;;;;;4991627;28;20122;-64
2022/07/18 01:20:04;;;;;;;9.70;4.50;;;;;;;;;;4999457;28;20109;-64
2022/07/18 01:22:30;;;;;;;10.25;6.20;;;;;;;;;;4994330;28;20050;-64
2022/07/18 01:24:56;;;;;;;7.32;5.93;;;;;;;;;;4997783;28;20470;-64
2022/07/18 01:27:22;;;;;;;8.75;6.28;;;;;;;;;;4991393;28;20038;-64
2022/07/18 01:29:49;;;;;;;9.30;6.10;;;;;;;;;;4994961;28;20041;-64
2022/07/18 01:32:16;;;;;;;10.25;6.22;;;;;;;;;;4999149;28;20180;-64
2022/07/18 01:34:42;;;;;;;5.97;4.47;;;;;;;;;;4994767;28;20750;-64
2022/07/18 01:37:09;;;;;;;6.97;5.18;;;;;;;;;;4987331;28;20492;-64
2022/07/18 01:39:36;;;;;;;9.77;7.00;;;;;;;;;;4972216;28;20508;-64
2022/07/18 01:42:03;;;;;;;8.40;5.70;;;;;;;;;;4998037;28;20065;-64
2022/07/18 01:44:30;;;;;;;12.27;8.55;;;;;;;;;;4986696;28;20184;-64
2022/07/18 01:46:56;;;;;;;14.75;8.25;;;;;;;;;;4992503;28;20038;-64
2022/07/18 01:49:22;;;;;;;10.98;6.97;;;;;;;;;;4995254;28;20444;-64
2022/07/18 01:51:49;;;;;;;10.52;6.47;;;;;;;;;;4998092;28;20049;-64
2022/07/18 01:54:15;;;;;;;10.18;6.32;;;;;;;;;;5002699;28;20048;-64
2022/07/18 01:56:41;;;;;;;10.75;6.15;;;;;;;;;;4991955;28;20043;-64
2022/07/18 01:59:07;;;;;;;7.82;5.95;;;;;;;;;;4988733;28;20504;-64
2022/07/18 02:01:33;;;;;;;8.95;6.20;;;;;;;;;;4990937;28;20454;-64
2022/07/18 02:03:59;;;;;;;10.18;6.65;;;;;;;;;;4994331;28;20045;-64
2022/07/18 02:06:25;;;;;;;13.57;6.97;;;;;;;;;;4997238;28;20050;-64
2022/07/18 02:08:51;;;;;;;10.25;6.60;;;;;;;;;;4990207;28;20049;-64
2022/07/18 02:11:17;;;;;;;8.82;5.90;;;;;;;;;;4995138;28;20050;-64
2022/07/18 02:13:43;;;;;;;8.75;6.35;;;;;;;;;;4988800;28;20563;-64
2022/07/18 02:16:09;;;;;;;13.27;7.18;;;;;;;;;;4990706;28;20138;-64
2022/07/18 02:18:35;;;;;;;9.85;7.55;;;;;;;;;;5002500;28;20502;-64
2022/07/18 02:21:01;;;;;;;10.48;7.05;;;;;;;;;;4995468;28;20045;-64
2022/07/18 02:23:28;;;;;;;9.50;6.28;;;;;;;;;;4987705;28;20046;-64
2022/07/18 02:25:54;;;;;;;8.10;5.63;;;;;;;;;;4996497;28;20117;-64
2022/07/18 02:28:20;;;;;;;6.53;4.45;;;;;;;;;;5022259;22;20038;-65
2022/07/18 02:30:48;;;;;;;6.97;5.00;;;;;;;;;;5029806;28;20033;-66
2022/07/18 02:33:14;;;;;;;10.25;6.57;;;;;;;;;;5030148;28;20041;-66
2022/07/18 02:35:40;;;;;;;8.45;5.20;;;;;;;;;;5028876;28;20491;-65
2022/07/18 02:38:06;;;;;;;5.90;4.18;;;;;;;;;;5023112;28;20045;-65
2022/07/18 02:40:32;;;;;;;5.53;3.72;;;;;;;;;;5025751;28;20045;-65
2022/07/18 02:42:58;;;;;;;7.22;4.95;;;;;;;;;;5032472;28;20061;-65
2022/07/18 02:45:24;;;;;;;9.20;5.43;;;;;;;;;;5034530;28;20140;-65
2022/07/18 02:47:50;;;;;;;7.20;5.50;;;;;;;;;;5034907;28;20120;-65
2022/07/18 02:50:16;;;;;;;9.73;6.28;;;;;;;;;;5025875;28;20116;-65
2022/07/18 02:52:43;;;;;;;8.20;6.20;;;;;;;;;;5033765;28;20127;-66
2022/07/18 02:55:10;;;;;;;10.52;6.40;;;;;;;;;;5025999;28;20446;-66
2022/07/18 02:57:36;;;;;;;9.63;6.05;;;;;;;;;;5022142;28;20038;-65
2022/07/18 03:00:04;;;;;;;9.18;6.43;;;;;;;;;;5024207;28;20038;-65
2022/07/18 03:02:30;;;;;;;8.32;5.70;;;;;;;;;;5030034;28;20527;-66
2022/07/18 03:04:56;;;;;;;10.18;6.82;;;;;;;;;;5030388;28;20056;-65
2022/07/18 03:07:22;;;;;;;11.32;7.70;;;;;;;;;;5030238;28;20038;-65
2022/07/18 03:09:48;;;;;;;13.85;7.82;;;;;;;;;;5033925;28;20029;-65
2022/07/18 03:12:14;;;;;;;12.68;7.70;;;;;;;;;;5032815;28;20048;-65
2022/07/18 03:14:40;;;;;;;12.02;7.85;;;;;;;;;;5026518;28;20478;-65
2022/07/18 03:17:06;;;;;;;9.27;6.30;;;;;;;;;;5029752;28;20037;-66
2022/07/18 03:19:32;;;;;;;10.30;5.90;;;;;;;;;;5030499;28;20072;-65
2022/07/18 03:21:58;;;;;;;8.75;6.60;;;;;;;;;;5027529;28;20079;-66
2022/07/18 03:24:24;;;;;;;8.45;5.18;;;;;;;;;;5030940;28;20046;-65
2022/07/18 03:26:51;;;;;;;10.48;7.10;;;;;;;;;;5031145;28;20120;-65
2022/07/18 03:29:17;;;;;;;11.63;6.93;;;;;;;;;;5030410;28;20041;-66
2022/07/18 03:31:43;;;;;;;10.63;6.88;;;;;;;;;;5030884;28;20483;-65
2022/07/18 03:34:09;;;;;;;11.40;7.63;;;;;;;;;;5029940;28;20034;-66
2022/07/18 03:36:35;;;;;;;13.07;7.82;;;;;;;;;;5031954;28;20038;-65
2022/07/18 03:39:01;;;;;;;12.88;8.18;;;;;;;;;;5028476;28;20042;-66
2022/07/18 03:41:27;;;;;;;14.25;8.25;;;;;;;;;;5031089;28;20045;-65
2022/07/18 03:43:53;;;;;;;13.63;7.57;;;;;;;;;;5030504;28;20415;-65
2022/07/18 03:46:19;;;;;;;11.52;6.50;;;;;;;;;;5029419;28;20037;-65
2022/07/18 03:48:45;;;;;;;14.02;7.70;;;;;;;;;;5029746;28;20080;-65
2022/07/18 03:51:11;;;;;;;14.23;8.32;;;;;;;;;;5031486;28;20503;-65
2022/07/18 03:53:37;;;;;;;13.70;7.65;;;;;;;;;;5031690;28;20406;-65
2022/07/18 03:56:03;;;;;;;12.95;7.95;;;;;;;;;;5029886;28;20041;-65
2022/07/18 03:58:29;;;;;;;11.82;7.70;;;;;;;;;;5030786;28;20034;-66
2022/07/18 04:00:55;;;;;;;14.57;7.93;;;;;;;;;;5026732;28;20034;-65
2022/07/18 04:03:21;;;;;;;9.02;5.63;;;;;;;;;;5027529;28;20124;-65
2022/07/18 04:05:48;;;;;;;8.18;5.47;;;;;;;;;;5024787;28;20099;-66
2022/07/18 04:08:14;;;;;;;9.40;5.88;;;;;;;;;;5029710;28;20040;-66
2022/07/18 04:10:40;;;;;;;9.52;6.38;;;;;;;;;;5030616;28;20403;-66
2022/07/18 04:13:06;;;;;;;9.35;6.38;;;;;;;;;;5029361;28;20127;-66
2022/07/18 04:15:33;;;;;;;9.32;6.80;;;;;;;;;;5029845;28;20413;-65
2022/07/18 04:17:59;;;;;;;11.55;6.47;;;;;;;;;;5036579;28;20057;-66
2022/07/18 04:20:25;;;;;;;10.07;6.10;;;;;;;;;;5023996;28;20434;-63
2022/07/18 04:22:55;;;;;;;8.65;6.05;;;;;;;;;;5019438;28;20480;-63
2022/07/18 04:25:22;;;;;;;11.40;7.07;;;;;;;;;;5030166;28;20049;-63
2022/07/18 04:27:48;;;;;;;10.48;6.82;;;;;;;;;;5030312;28;20320;-63
2022/07/18 04:30:16;;;;;;;11.23;7.25;;;;;;;;;;5029679;28;20041;-63
2022/07/18 04:32:42;;;;;;;12.18;7.63;;;;;;;;;;5029461;28;20037;-63
2022/07/18 04:35:08;;;;;;;9.77;6.85;;;;;;;;;;5030152;28;20038;-63
2022/07/18 04:37:34;;;;;;;12.15;7.50;;;;;;;;;;5030164;28;20045;-63
2022/07/18 04:40:01;;;;;;;12.40;8.00;;;;;;;;;;5029048;28;20034;-63
2022/07/18 04:42:27;;;;;;;12.95;8.27;;;;;;;;;;5030984;28;20041;-63
2022/07/18 04:44:53;;;;;;;13.55;8.18;;;;;;;;;;5027972;28;20099;-63
2022/07/18 04:47:19;;;;;;;12.27;8.80;;;;;;;;;;5030372;28;20042;-63
2022/07/18 04:49:45;;;;;;;13.75;8.45;;;;;;;;;;5028099;28;20068;-63
2022/07/18 04:52:11;;;;;;;11.18;6.97;;;;;;;;;;5029834;28;20064;-63
2022/07/18 04:54:37;;;;;;;12.80;7.78;;;;;;;;;;5024570;28;20129;-63
2022/07/18 04:57:03;;;;;;;13.85;8.18;;;;;;;;;;5031331;28;20121;-63
2022/07/18 04:59:29;;;;;;;13.77;8.90;;;;;;;;;;5029248;28;20090;-63
2022/07/18 05:01:55;;;;;;;13.02;8.40;;;;;;;;;;5028737;28;20415;-63
2022/07/18 05:04:22;;;;;;;12.35;7.47;;;;;;;;;;5027023;28;20046;-63
2022/07/18 05:06:48;;;;;;;13.05;7.68;;;;;;;;;;5031689;28;20260;-63
2022/07/18 05:09:14;;;;;;;12.77;8.18;;;;;;;;;;5028207;28;20045;-63
2022/07/18 05:11:40;;;;;;;13.68;8.07;;;;;;;;;;5024658;28;20041;-64
2022/07/18 05:14:06;;;;;;;12.52;8.48;;;;;;;;;;5028178;28;20772;-63
2022/07/18 05:16:32;;;;;;;14.32;8.48;;;;;;;;;;5027607;28;20072;-63
2022/07/18 05:18:59;;;;;;;13.82;7.90;;;;;;;;;;5027458;28;20034;-64
2022/07/18 05:21:25;;;;;;;14.95;8.30;;;;;;;;;;5026332;28;20041;-63
2022/07/18 05:23:51;;;;;;;10.25;7.70;;;;;;;;;;5016444;28;20033;-64
2022/07/18 05:26:17;;;;;;;12.55;7.55;;;;;;;;;;5024924;28;20071;-63
2022/07/18 05:28:43;;;;;;;11.18;7.43;;;;;;;;;;5027780;28;20041;-63
2022/07/18 05:31:09;;;;;;;12.52;7.35;;;;;;;;;;5032058;28;20045;-63
2022/07/18 05:33:35;;;;;;;11.98;7.28;;;;;;;;;;5029823;28;20072;-63
2022/07/18 05:36:01;;;;;;;10.80;6.80;;;;;;;;;;5030643;28;20048;-63
2022/07/18 05:38:27;;;;;;;13.82;7.57;;;;;;;;;;5021458;28;20042;-63
2022/07/18 05:40:53;;;;;;;14.75;7.70;;;;;;;;;;5028911;28;20040;-63
2022/07/18 05:43:19;;;;;;;9.80;6.13;;;;;;;;;;5030684;28;20046;-64
2022/07/18 05:45:45;;;;;;;10.57;7.28;;;;;;;;;;5029919;28;20033;-63
2022/07/18 05:48:11;;;;;;;11.18;5.65;;;;;;;;;;5031437;28;20037;-63
2022/07/18 05:50:37;;;;;;;11.23;6.68;;;;;;;;;;5030324;28;20041;-63
2022/07/18 05:53:03;;;;;;;12.20;6.60;;;;;;;;;;5031407;28;20099;-63
2022/07/18 05:55:29;;;;;;;9.98;6.15;;;;;;;;;;5030380;28;20041;-63
2022/07/18 05:57:55;;;;;;;13.40;6.25;;;;;;;;;;5029553;28;20044;-63
2022/07/18 06:00:21;;;;;;;8.98;5.90;;;;;;;;;;5030585;28;20051;-63
2022/07/18 06:02:48;;;;;;;9.60;6.00;;;;;;;;;;5030876;28;20030;-63
2022/07/18 06:05:14;;;;;;;9.55;6.10;;;;;;;;;;5030824;28;20045;-63
2022/07/18 06:07:40;;;;;;;11.45;5.82;;;;;;;;;;5030661;28;20116;-64
2022/07/18 06:10:07;;;;;;;9.85;5.97;;;;;;;;;;5029833;28;20091;-63
2022/07/18 06:12:33;;;;;;;9.95;5.75;;;;;;;;;;5032676;28;20095;-64
2022/07/18 06:14:59;;;;;;;11.30;5.90;;;;;;;;;;5035810;28;20120;-63
2022/07/18 06:17:25;;;;;;;12.70;5.82;;;;;;;;;;5034103;28;20064;-64
2022/07/18 06:19:51;;;;;;;9.18;5.88;;;;;;;;;;5035453;28;20120;-63
2022/07/18 06:22:18;;;;;;;10.77;5.63;;;;;;;;;;5034918;28;20156;-64
2022/07/18 06:24:44;;;;;;;10.30;5.47;;;;;;;;;;5028308;28;20320;-63
2022/07/18 06:27:09;;;;;;;10.23;5.60;;;;;;;;;;5034946;28;20056;-64
2022/07/18 06:29:35;;;;;;;10.13;5.60;;;;;;;;;;5034636;28;20407;-63
2022/07/18 06:32:02;;;;;;;9.32;5.35;;;;;;;;;;5035121;28;20037;-63
2022/07/18 06:34:28;;;;;;;11.32;6.38;;;;;;;;;;5030553;28;20044;-63
2022/07/18 06:36:54;;;;;;;9.45;5.65;;;;;;;;;;5035355;28;20064;-63
2022/07/18 06:39:20;;;;;;;11.52;5.50;;;;;;;;;;5034210;28;20480;-63
2022/07/18 06:41:46;;;;;;;13.23;6.13;;;;;;;;;;5033039;28;20037;-63
2022/07/18 06:44:12;;;;;;;9.65;5.15;;;;;;;;;;5032517;28;20030;-63
2022/07/18 06:46:38;;;;;;;8.15;5.00;;;;;;;;;;5031571;28;20152;-63
2022/07/18 06:49:05;;;;;;;10.30;5.30;;;;;;;;;;5030260;28;20530;-63
2022/07/18 06:51:31;;;;;;;8.95;5.18;;;;;;;;;;5032681;28;20419;-64
2022/07/18 06:53:57;;;;;;;7.18;4.55;;;;;;;;;;5032113;28;20057;-63
2022/07/18 06:56:23;;;;;;;7.78;4.70;;;;;;;;;;5029828;28;20042;-64
2022/07/18 06:58:50;;;;;;;9.10;4.90;;;;;;;;;;5026757;28;20037;-64
2022/07/18 07:01:17;;;;;;;12.40;4.68;;;;;;;;;;5033675;28;20037;-63
2022/07/18 07:03:43;;;;;;;9.35;4.60;;;;;;;;;;5028461;28;20498;-63
2022/07/18 07:06:09;;;;;;;9.05;4.82;;;;;;;;;;5030889;28;20033;-63
2022/07/18 07:08:35;;;;;;;8.80;5.03;;;;;;;;;;5033377;28;20112;-64
2022/07/18 07:11:01;;;;;;;8.88;4.28;;;;;;;;;;5030558;28;20040;-63
2022/07/18 07:13:27;;;;;;;6.47;4.18;;;;;;;;;;5031255;28;20487;-63
2022/07/18 07:15:53;;;;;;;10.43;4.32;;;;;;;;;;5032280;28;20039;-63
2022/07/18 07:18:20;;;;;;;9.48;3.92;;;;;;;;;;5033499;28;20045;-64
2022/07/18 07:20:47;;;;;;;7.43;3.90;;;;;;;;;;5032067;28;20056;-63
2022/07/18 07:23:13;;;;;;;7.93;3.80;;;;;;;;;;5023022;28;20065;-63
2022/07/18 07:25:39;;;;;;;7.20;3.63;;;;;;;;;;5030119;28;20039;-63
2022/07/18 07:28:06;;;;;;;8.18;4.20;;;;;;;;;;5032075;28;20040;-63
2022/07/18 07:30:35;;;;;;;7.43;3.60;;;;;;;;;;5027727;28;20347;-63
2022/07/18 07:33:02;;;;;;;7.38;3.58;;;;;;;;;;5029151;28;20094;-64
2022/07/18 07:35:28;;;;;;;5.90;3.20;;;;;;;;;;5032983;28;20037;-63
2022/07/18 07:37:56;;;;;;;8.82;4.00;;;;;;;;;;5033145;28;20578;-63
2022/07/18 07:40:24;;;;;;;4.97;2.97;;;;;;;;;;5026281;28;20038;-63
2022/07/18 07:42:50;;;;;;;6.72;3.13;;;;;;;;;;5032190;28;20037;-63
2022/07/18 07:45:16;;;;;;;4.78;2.78;;;;;;;;;;5027971;28;20042;-63
2022/07/18 07:47:43;;;;;;;4.85;2.90;;;;;;;;;;5030353;28;20030;-63
2022/07/18 07:50:10;;;;;;;8.55;2.95;;;;;;;;;;5030808;28;20061;-64
2022/07/18 07:52:37;;;;;;;5.22;2.70;;;;;;;;;;5025397;28;20423;-63
2022/07/18 07:55:03;;;;;;;3.83;2.10;;;;;;;;;;5033475;28;20037;-63
2022/07/18 07:57:29;;;;;;;3.30;2.00;;;;;;;;;;5031522;28;20059;-63
2022/07/18 07:59:55;;;;;;;5.70;2.30;;;;;;;;;;5025890;28;20049;-64
2022/07/18 08:02:21;;;;;;;4.00;2.20;;;;;;;;;;5032138;28;20301;-63
2022/07/18 08:04:47;;;;;;;5.32;2.47;;;;;;;;;;5030989;28;20513;-63
2022/07/18 08:07:13;;;;;;;8.95;2.75;;;;;;;;;;5027141;28;20048;-63
2022/07/18 08:09:40;;;;;;;8.57;2.33;;;;;;;;;;5031889;28;20129;-63
2022/07/18 08:12:06;;;;;;;5.68;2.38;;;;;;;;;;5027383;28;20072;-64
2022/07/18 08:14:33;;;;;;;4.63;2.00;;;;;;;;;;5027089;28;20042;-64
2022/07/18 08:16:59;;;;;;;5.13;2.10;;;;;;;;;;5032915;28;20491;-63
2022/07/18 08:19:25;;;;;;;4.30;2.33;;;;;;;;;;5029121;28;20044;-63
2022/07/18 08:21:51;;;;;;;5.30;1.92;;;;;;;;;;5032694;28;20033;-64
2022/07/18 08:24:17;;;;;;;5.78;2.53;;;;;;;;;;5030478;28;20039;-63
2022/07/18 08:26:43;;;;;;;3.75;2.00;;;;;;;;;;5025717;28;20075;-64
2022/07/18 08:29:09;;;;;;;4.30;1.42;;;;;;;;;;5033654;22;20447;-63
2022/07/18 08:31:36;;;;;;;6.20;2.13;;;;;;;;;;5012931;28;20091;-64
2022/07/18 08:34:02;;;;;;;5.72;1.83;;;;;;;;;;5011890;28;20112;-65
2022/07/18 08:36:28;;;;;;;5.43;1.70;;;;;;;;;;5012378;28;20080;-64
2022/07/18 08:38:54;;;;;;;4.30;1.80;;;;;;;;;;5012484;28;20038;-64
2022/07/18 08:41:22;;;;;;;8.63;1.80;;;;;;;;;;5011672;28;20052;-64
2022/07/18 08:43:49;;;;;;;5.70;1.75;;;;;;;;;;5011791;28;20091;-65
2022/07/18 08:46:16;;;;;;;8.40;1.80;;;;;;;;;;5012915;28;20408;-64
2022/07/18 08:48:43;;;;;;;3.88;1.70;;;;;;;;;;5012200;28;20037;-64
2022/07/18 08:51:09;;;;;;;3.83;1.70;;;;;;;;;;5013093;28;20040;-64
2022/07/18 08:53:37;;;;;;;4.18;1.55;;;;;;;;;;5012790;28;20045;-64
2022/07/18 08:56:03;;;;;;;5.43;1.55;;;;;;;;;;5012400;28;20492;-65
2022/07/18 08:58:29;;;;;;;4.03;1.50;;;;;;;;;;5004019;28;20044;-65
2022/07/18 09:00:58;;;;;;;6.82;1.40;;;;;;;;;;5003006;28;20034;-64
2022/07/18 09:03:24;;;;;;;3.65;1.65;;;;;;;;;;5027730;28;20046;-64
2022/07/18 09:06:22;;;;;;;4.75;1.50;;;;;;;;;;5012570;28;20041;-65
2022/07/18 09:08:58;;;;;;;3.85;1.58;;;;;;;;;;5000284;28;20404;-64
2022/07/18 09:11:25;;;;;;;6.63;1.70;;;;;;;;;;5011909;28;20137;-65
2022/07/18 09:13:51;;;;;;;4.85;1.65;;;;;;;;;;5012824;28;20034;-64
2022/07/18 09:16:17;;;;;;;3.38;1.70;;;;;;;;;;5010600;28;20038;-64
2022/07/18 09:18:47;;;;;;;4.15;1.70;;;;;;;;;;5005287;28;20093;-64
2022/07/18 09:21:19;;;;;;;6.30;1.90;;;;;;;;;;5012282;28;20073;-64
2022/07/18 09:23:48;;;;;;;2.90;1.50;;;;;;;;;;5012088;28;20120;-64
2022/07/18 09:26:33;;;;;;;3.70;1.40;;;;;;;;;;5012258;28;20085;-64
2022/07/18 09:28:59;;;;;;;4.93;1.60;;;;;;;;;;5011720;28;20041;-64
2022/07/18 09:31:25;;;;;;;5.25;1.77;;;;;;;;;;5003319;28;20042;-64
2022/07/18 09:33:58;;;;;;;4.40;1.48;;;;;;;;;;5012429;28;20048;-64
2022/07/18 09:36:25;;;;;;;5.35;1.60;;;;;;;;;;5011856;28;20053;-64
2022/07/18 09:38:51;;;;;;;4.10;1.70;;;;;;;;;;5011114;28;20527;-64
2022/07/18 09:41:23;;;;;;;6.32;1.52;;;;;;;;;;5011887;28;20674;-64
2022/07/18 09:43:49;;;;;;;2.17;1.88;;;;;;;;;;5012427;28;20042;-64
2022/07/18 09:46:15;;;;;;;2.60;1.50;;;;;;;;;;5011336;28;20476;-64
2022/07/18 09:48:41;;;;;;;5.32;1.63;;;;;;;;;;5001890;28;20030;-64
2022/07/18 09:51:08;;;;;;;4.90;1.98;;;;;;;;;;5011229;28;20038;-64
2022/07/18 09:53:38;;;;;;;6.90;1.60;;;;;;;;;;5012311;28;20124;-64
2022/07/18 09:56:06;;;;;;;4.70;1.58;;;;;;;;;;5011546;28;20037;-64
2022/07/18 09:58:34;;;;;;;2.03;1.45;;;;;;;;;;5010559;28;20042;-64
2022/07/18 10:01:01;;;;;;;5.28;1.65;;;;;;;;;;5004053;28;20034;-64
2022/07/18 10:03:27;;;;;;;4.63;1.95;;;;;;;;;;5011040;28;20042;-64
2022/07/18 10:05:54;;;;;;;5.63;1.75;;;;;;;;;;5011423;28;20036;-64
2022/07/18 10:08:22;;;;;;;4.38;1.60;;;;;;;;;;5010903;28;20045;-64
2022/07/18 10:10:49;;;;;;;4.68;2.00;;;;;;;;;;5010959;28;20046;-64
2022/07/18 10:13:15;;;;;;;5.50;1.92;;;;;;;;;;5012118;28;20061;-64
2022/07/18 10:15:42;;;;;;;4.80;1.70;;;;;;;;;;5010653;28;20038;-64
2022/07/18 10:18:17;;;;;;;4.45;1.90;;;;;;;;;;5011466;28;20458;-64
2022/07/18 10:20:45;;;;;;;3.65;1.90;;;;;;;;;;5010796;28;20153;-64
2022/07/18 10:23:19;;;;;;;3.95;1.83;;;;;;;;;;5011078;28;20042;-64
2022/07/18 10:25:45;;;;;;;2.78;1.40;;;;;;;;;;5011689;28;20065;-65
2022/07/18 10:28:13;;;;;;;3.65;1.50;;;;;;;;;;5008798;28;20049;-64
2022/07/18 10:30:46;;;;;;;4.45;1.92;;;;;;;;;;5010529;28;20053;-64
2022/07/18 10:33:31;;;;;;;4.80;1.75;;;;;;;;;;5011766;28;20426;-64
2022/07/18 10:36:02;;;;;;;4.38;1.90;;;;;;;;;;5011561;28;20407;-64
2022/07/18 10:38:29;;;;;;;4.18;1.77;;;;;;;;;;5011087;28;20053;-64
2022/07/18 10:41:02;;;;;;;4.15;1.85;;;;;;;;;;5011176;28;20399;-65
2022/07/18 10:43:31;;;;;;;7.15;1.75;;;;;;;;;;5011028;28;20068;-65
2022/07/18 10:45:58;;;;;;;3.55;1.80;;;;;;;;;;5010276;28;20034;-65
2022/07/18 10:48:33;;;;;;;4.55;1.90;;;;;;;;;;5011240;28;20053;-64
2022/07/18 10:51:00;;;;;;;3.63;1.70;;;;;;;;;;5011302;28;20077;-64
2022/07/18 10:53:46;;;;;;;4.72;1.50;;;;;;;;;;5008990;28;20072;-64
2022/07/18 10:56:12;;;;;;;5.70;1.90;;;;;;;;;;5007771;28;20037;-64
2022/07/18 10:58:41;;;;;;;3.75;1.88;;;;;;;;;;5009238;28;20034;-64
2022/07/18 11:01:11;;;;;;;5.03;1.90;;;;;;;;;;5004284;28;20070;-64
2022/07/18 11:03:37;;;;;;;4.78;2.10;;;;;;;;;;5002119;28;20088;-65
2022/07/18 11:06:03;;;;;;;7.20;2.25;;;;;;;;;;5010694;28;20041;-64
2022/07/18 11:08:33;;;;;;;4.55;2.00;;;;;;;;;;5014509;28;20045;-64
2022/07/18 11:11:02;;;;;;;5.15;1.85;;;;;;;;;;5014910;28;20518;-65
2022/07/18 11:13:29;;;;;;;3.80;1.98;;;;;;;;;;5005320;28;20050;-64
2022/07/18 11:15:55;;;;;;;4.15;1.75;;;;;;;;;;5014877;28;20088;-64
2022/07/18 11:18:22;;;;;;;4.18;2.00;;;;;;;;;;5014418;28;20045;-64
2022/07/18 11:20:48;;;;;;;5.40;2.40;;;;;;;;;;5014612;28;20073;-64
2022/07/18 11:23:17;;;;;;;5.97;2.10;;;;;;;;;;5014073;28;20041;-65
2022/07/18 11:25:43;;;;;;;4.50;2.25;;;;;;;;;;5014552;28;20042;-64
2022/07/18 11:28:09;;;;;;;5.15;2.30;;;;;;;;;;5005606;28;20037;-64
2022/07/18 11:30:36;;;;;;;7.53;2.20;;;;;;;;;;4994582;28;20122;-65
2022/07/18 11:33:02;;;;;;;6.00;2.70;;;;;;;;;;4994864;28;20088;-64
2022/07/18 11:35:28;;;;;;;5.55;2.80;;;;;;;;;;4995185;28;20042;-65
2022/07/18 11:37:55;;;;;;;3.60;2.22;;;;;;;;;;5008148;28;20116;-64
2022/07/18 11:40:21;;;;;;;4.07;2.20;;;;;;;;;;5012172;28;20074;-65
2022/07/18 11:42:48;;;;;;;3.15;2.22;;;;;;;;;;5014176;28;20070;-65
2022/07/18 11:45:15;;;;;;;3.90;2.30;;;;;;;;;;5014493;28;20439;-65
2022/07/18 11:47:48;;;;;;;5.05;2.20;;;;;;;;;;5013766;28;20042;-64
2022/07/18 11:50:15;;;;;;;2.80;1.88;;;;;;;;;;5012058;28;20042;-64
2022/07/18 11:52:41;;;;;;;3.72;2.10;;;;;;;;;;5004108;28;20121;-64
2022/07/18 11:55:07;;;;;;;6.20;2.25;;;;;;;;;;5010484;28;20512;-64
2022/07/18 11:57:33;;;;;;;4.63;2.25;;;;;;;;;;4994554;28;20050;-65
2022/07/18 12:00:00;;;;;;;4.25;2.53;;;;;;;;;;4994057;28;20404;-65
2022/07/18 12:02:45;;;;;;;5.18;2.33;;;;;;;;;;4993105;28;20509;-64
2022/07/18 12:05:11;;;;;;;5.10;2.25;;;;;;;;;;5000484;28;20041;-64
2022/07/18 12:07:37;;;;;;;5.57;2.50;;;;;;;;;;5002065;28;20042;-65
2022/07/18 12:10:16;;;;;;;4.15;2.47;;;;;;;;;;4993354;28;20627;-64
2022/07/18 12:12:42;;;;;;;5.88;2.40;;;;;;;;;;4994350;28;20074;-64
2022/07/18 12:15:08;;;;;;;3.85;2.00;;;;;;;;;;4992482;28;20042;-64
2022/07/18 12:17:43;;;;;;;5.03;2.22;;;;;;;;;;4993903;28;20496;-64
2022/07/18 12:20:10;;;;;;;5.72;2.38;;;;;;;;;;5006826;28;20042;-64
2022/07/18 12:22:36;;;;;;;4.18;2.00;;;;;;;;;;5005649;28;20500;-64
2022/07/18 12:25:04;;;;;;;4.90;2.50;;;;;;;;;;5013395;28;20045;-64
2022/07/18 12:27:30;;;;;;;6.57;2.45;;;;;;;;;;5011692;28;20385;-65
2022/07/18 12:30:11;;;;;;;4.55;2.15;;;;;;;;;;5012869;28;20048;-64
2022/07/18 12:32:43;;;;;;;4.55;2.40;;;;;;;;;;5013751;28;20048;-65
2022/07/18 12:35:11;;;;;;;6.05;2.10;;;;;;;;;;5003650;28;20042;-64
2022/07/18 12:37:37;;;;;;;3.90;2.25;;;;;;;;;;5005269;28;20525;-65
2022/07/18 12:40:05;;;;;;;6.88;2.95;;;;;;;;;;5012751;28;20042;-65
2022/07/18 12:42:36;;;;;;;3.38;2.30;;;;;;;;;;5013308;28;20044;-65
2022/07/18 12:45:01;;;;;;;;;;;;;;;;;;5013162;28;20042;-65
2022/07/18 12:47:28;;;;;;;6.90;2.70;;;;;;;;;;5013034;28;20004;-65
2022/07/18 12:49:54;;;;;;;5.28;2.50;;;;;;;;;;5003961;28;20034;-64
2022/07/18 12:52:20;;;;;;;7.68;2.58;;;;;;;;;;5012740;28;20057;-64
2022/07/18 12:54:46;;;;;;;3.28;2.38;;;;;;;;;;5012256;28;20084;-64
2022/07/18 12:57:12;;;;;;;3.90;2.50;;;;;;;;;;4992055;28;20043;-64
2022/07/18 12:59:38;;;;;;;4.10;2.67;;;;;;;;;;4992250;28;20101;-64
2022/07/18 13:02:04;;;;;;;5.07;2.67;;;;;;;;;;4994871;28;20408;-65
2022/07/18 13:04:31;;;;;;;5.30;2.70;;;;;;;;;;5012159;28;20041;-65
2022/07/18 13:06:57;;;;;;;6.22;2.60;;;;;;;;;;5012852;28;20042;-65
2022/07/18 13:09:23;;;;;;;6.82;2.58;;;;;;;;;;5010692;28;20099;-64
2022/07/18 13:11:49;;;;;;;5.50;2.50;;;;;;;;;;5011321;28;20044;-65
2022/07/18 13:14:16;;;;;;;6.30;2.42;;;;;;;;;;5012623;28;20034;-65
2022/07/18 13:16:45;;;;;;;7.95;2.85;;;;;;;;;;5012167;28;20095;-64
2022/07/18 13:19:15;;;;;;;5.05;2.50;;;;;;;;;;5003405;28;20033;-64
2022/07/18 13:21:41;;;;;;;4.80;2.50;;;;;;;;;;5012095;28;20042;-65
2022/07/18 13:24:07;;;;;;;4.57;2.08;;;;;;;;;;5027259;28;20038;-64
2022/07/18 13:26:33;;;;;;;4.75;2.35;;;;;;;;;;5012011;28;20450;-64
2022/07/18 13:28:59;;;;;;;6.30;2.47;;;;;;;;;;5012057;28;20400;-65
2022/07/18 13:31:25;;;;;;;5.03;2.17;;;;;;;;;;5011592;28;20038;-64
2022/07/18 13:33:51;;;;;;;5.78;2.40;;;;;;;;;;5003775;28;20129;-64
2022/07/18 13:36:18;;;;;;;5.28;2.40;;;;;;;;;;4994477;28;20417;-64
2022/07/18 13:38:44;;;;;;;4.15;2.22;;;;;;;;;;4992353;28;20408;-65
2022/07/18 13:41:10;;;;;;;4.72;2.30;;;;;;;;;;5002436;28;20099;-65
2022/07/18 13:43:39;;;;;;;4.88;2.50;;;;;;;;;;5012493;28;20069;-65
2022/07/18 13:46:08;;;;;;;4.63;2.35;;;;;;;;;;5011608;28;20048;-64
2022/07/18 13:48:34;;;;;;;6.30;2.45;;;;;;;;;;5006855;28;20447;-64
2022/07/18 13:51:01;;;;;;;4.05;2.58;;;;;;;;;;5006774;28;20033;-65
2022/07/18 13:53:27;;;;;;;4.82;2.80;;;;;;;;;;5010601;28;20088;-64
2022/07/18 13:55:53;;;;;;;4.20;2.10;;;;;;;;;;5011880;28;20044;-65
2022/07/18 13:58:19;;;;;;;4.30;2.20;;;;;;;;;;5011907;28;20042;-64
2022/07/18 14:00:45;;;;;;;4.10;2.47;;;;;;;;;;5009347;28;20049;-65
2022/07/18 14:03:12;;;;;;;4.60;2.33;;;;;;;;;;5003321;28;20037;-65
2022/07/18 14:05:38;;;;;;;4.93;2.45;;;;;;;;;;5011899;28;20480;-65
2022/07/18 14:08:05;;;;;;;4.13;2.47;;;;;;;;;;5011392;28;20042;-65
2022/07/18 14:10:31;;;;;;;6.22;2.53;;;;;;;;;;5010536;28;20049;-64
2022/07/18 14:12:58;;;;;;;2.80;2.50;;;;;;;;;;5003865;28;20422;-65
2022/07/18 14:15:24;;;;;;;4.05;2.58;;;;;;;;;;5008685;28;20041;-65
2022/07/18 14:17:50;;;;;;;3.60;2.38;;;;;;;;;;5007686;28;20515;-64
2022/07/18 14:20:16;;;;;;;6.22;2.50;;;;;;;;;;5003448;28;20065;-65
2022/07/18 14:22:43;;;;;;;3.63;2.70;;;;;;;;;;5003566;28;20049;-64
2022/07/18 14:25:10;;;;;;;5.53;2.50;;;;;;;;;;5006762;28;20254;-65
2022/07/18 14:27:36;;;;;;;6.00;2.58;;;;;;;;;;4998395;28;20116;-66
2022/07/18 14:30:03;;;;;;;4.07;2.42;;;;;;;;;;5023268;22;20519;-64
2022/07/18 14:32:29;;;;;;;3.83;2.30;;;;;;;;;;5007698;28;20067;-64
2022/07/18 14:34:55;;;;;;;6.45;2.45;;;;;;;;;;5011431;28;20542;-64
2022/07/18 14:37:21;;;;;;;3.50;2.58;;;;;;;;;;5025762;28;20457;-64
2022/07/18 14:39:47;;;;;;;4.18;2.33;;;;;;;;;;5012727;28;20037;-64
2022/07/18 14:42:13;;;;;;;5.78;2.42;;;;;;;;;;5011732;28;20137;-64